createdAt,value
2018-12-13T08:51:54.202Z,76.54
2018-12-13T08:52:54.302Z,76.43
2018-12-13T08:53:55.626Z,75.81
2018-12-13T08:55:00.688Z,74.53
2018-12-13T08:55:54.011Z,71.75
2018-12-13T08:56:53.998Z,73.10
2018-12-13T08:57:54.047Z,75.29
2018-12-13T08:58:56.834Z,74.74
2018-12-13T09:00:02.211Z,75.40
2018-12-13T09:00:54.093Z,79.05
2018-12-13T09:01:54.052Z,79.08
2018-12-13T09:02:53.971Z,75.57
2018-12-13T09:03:54.719Z,76.33
2018-12-13T09:04:53.870Z,76.79
2018-12-13T09:05:53.907Z,77.66
2018-12-13T09:06:53.887Z,77.45
2018-12-13T09:07:53.885Z,77.34
2018-12-13T09:08:53.887Z,77.17
2018-12-13T09:09:53.811Z,75.43
2018-12-13T09:10:53.805Z,75.40
2018-12-13T09:11:53.888Z,74.01
2018-12-13T09:12:53.816Z,75.95
2018-12-13T09:13:53.809Z,72.45
2018-12-13T09:14:53.760Z,73.55
2018-12-13T09:15:53.755Z,75.12
2018-12-13T09:16:53.780Z,74.04
2018-12-13T09:17:53.766Z,73.86
2018-12-13T09:18:53.786Z,74.60
2018-12-13T09:19:53.699Z,73.90
2018-12-13T09:20:53.701Z,74.28
2018-12-13T09:21:53.741Z,75.63
2018-12-13T09:22:53.715Z,77.13
2018-12-13T09:23:53.666Z,75.08
2018-12-13T09:24:53.705Z,75.15
2018-12-13T09:25:53.756Z,74.74
2018-12-13T09:26:53.655Z,77.13
2018-12-13T09:27:53.633Z,75.26
2018-12-13T09:28:53.677Z,75.53
2018-12-13T09:30:17.934Z,77.37
2018-12-13T09:31:30.642Z,72.06
2018-12-13T09:31:53.736Z,72.55
2018-12-13T09:33:36.162Z,76.06
2018-12-13T09:34:18.617Z,72.41
2018-12-13T09:50:12.887Z,72.06
2018-12-13T09:50:48.418Z,72.17
2018-12-13T09:51:48.946Z,71.16
2018-12-13T09:52:48.457Z,73.49
2018-12-13T09:53:49.421Z,73.03
2018-12-13T09:54:50.890Z,72.13
2018-12-13T09:55:48.327Z,71.61
2018-12-13T09:56:48.440Z,71.92
2018-12-13T09:57:48.294Z,72.13
2018-12-13T09:58:48.260Z,71.81
2018-12-13T09:59:48.384Z,71.81
2018-12-13T10:00:48.212Z,72.44
2018-12-13T10:01:48.215Z,72.55
2018-12-13T10:02:48.230Z,72.13
2018-12-13T10:03:48.268Z,72.20
2018-12-13T10:04:48.247Z,71.47
2018-12-13T10:05:48.202Z,72.30
2018-12-13T10:06:48.227Z,71.44
2018-12-13T10:07:48.245Z,70.95
2018-12-13T10:08:48.159Z,71.89
2018-12-13T10:09:48.161Z,70.98
2018-12-13T10:10:48.189Z,71.58
2018-12-13T10:11:48.632Z,71.09
2018-12-13T10:12:48.893Z,71.47
2018-12-13T10:13:48.103Z,70.32
2018-12-13T10:14:51.080Z,70.15
2018-12-13T10:15:48.635Z,70.12
2018-12-13T10:16:49.776Z,70.56
2018-12-13T10:17:55.811Z,72.20
2018-12-13T10:18:49.653Z,70.61
2018-12-13T10:19:54.050Z,70.50
2018-12-13T10:20:49.095Z,69.67
2018-12-13T10:21:48.007Z,68.97
2018-12-13T10:22:48.227Z,68.55
2018-12-13T10:23:47.992Z,69.38
2018-12-13T10:24:48.798Z,69.38
2018-12-13T10:25:47.950Z,70.29
2018-12-13T10:26:47.941Z,69.46
2018-12-13T10:27:49.182Z,70.47
2018-12-13T10:28:48.151Z,68.18
2018-12-13T10:29:47.909Z,67.76
2018-12-13T10:30:48.383Z,68.10
2018-12-13T10:31:47.866Z,69.67
2018-12-13T10:32:47.988Z,68.52
2018-12-13T10:33:47.874Z,69.35
2018-12-13T10:34:47.841Z,68.63
2018-12-13T10:35:48.363Z,68.00
2018-12-13T10:36:47.809Z,69.15
2018-12-13T10:37:47.802Z,69.22
2018-12-13T10:38:53.073Z,70.12
2018-12-13T10:39:48.775Z,67.80
2018-12-13T10:40:47.775Z,67.83
2018-12-13T10:41:47.752Z,66.69
2018-12-13T10:42:47.743Z,67.00
2018-12-13T10:43:48.132Z,70.20
2018-12-13T10:44:47.725Z,67.63
2018-12-13T10:45:47.707Z,67.86
2018-12-13T10:46:47.712Z,67.35
2018-12-13T10:47:47.694Z,68.52
2018-12-13T10:48:47.706Z,68.52
2018-12-13T10:49:47.668Z,68.18
2018-12-13T10:50:47.659Z,68.38
2018-12-13T10:51:47.654Z,68.25
2018-12-13T10:52:47.683Z,66.62
2018-12-13T10:53:47.663Z,67.94
2018-12-13T10:54:47.712Z,66.62
2018-12-13T10:55:47.598Z,66.20
2018-12-13T10:56:47.583Z,66.44
2018-12-13T10:57:47.593Z,66.33
2018-12-13T10:58:47.585Z,66.75
2018-12-13T10:59:47.550Z,66.13
2018-12-13T11:00:47.578Z,66.65
2018-12-13T11:01:47.529Z,66.65
2018-12-13T11:02:47.518Z,66.33
2018-12-13T11:03:47.552Z,66.41
2018-12-13T11:04:47.495Z,66.41
2018-12-13T11:05:47.506Z,65.50
2018-12-13T11:06:47.471Z,66.09
2018-12-13T11:07:47.459Z,65.92
2018-12-13T11:08:47.477Z,67.38
2018-12-13T11:09:47.440Z,69.64
2018-12-13T11:10:47.428Z,69.50
2018-12-13T11:11:47.441Z,66.45
2018-12-13T11:12:47.411Z,69.78
2018-12-13T11:13:47.416Z,65.52
2018-12-13T11:14:47.390Z,65.83
2018-12-13T11:15:47.377Z,64.48
2018-12-13T11:16:47.359Z,64.58
2018-12-13T11:17:47.387Z,65.20
2018-12-13T11:18:47.373Z,65.31
2018-12-13T11:19:47.326Z,66.24
2018-12-13T11:20:47.317Z,66.03
2018-12-13T11:21:47.311Z,64.79
2018-12-13T11:22:47.295Z,65.55
2018-12-13T11:23:47.324Z,66.17
2018-12-13T11:24:47.271Z,66.48
2018-12-13T11:25:47.270Z,66.38
2018-12-13T11:26:47.249Z,66.38
2018-12-13T11:27:47.243Z,65.75
2018-12-13T11:28:47.263Z,66.09
2018-12-13T11:29:47.227Z,66.09
2018-12-13T11:30:47.207Z,65.89
2018-12-13T11:31:47.215Z,65.52
2018-12-13T11:32:47.184Z,65.75
2018-12-13T11:33:47.206Z,65.86
2018-12-13T11:34:47.186Z,65.58
2018-12-13T11:35:47.179Z,65.44
2018-12-13T11:36:47.142Z,65.44
2018-12-13T11:37:47.126Z,65.44
2018-12-13T11:38:47.121Z,66.38
2018-12-13T11:39:47.131Z,65.44
2018-12-13T11:40:47.173Z,65.75
2018-12-13T11:41:47.084Z,65.44
2018-12-13T11:42:47.153Z,65.37
2018-12-13T11:43:47.078Z,64.82
2018-12-13T11:44:47.075Z,64.37
2018-12-13T11:45:47.083Z,66.45
2018-12-13T11:46:47.028Z,63.88
2018-12-13T11:47:47.019Z,63.78
2018-12-13T11:48:47.009Z,64.19
2018-12-13T11:49:47.020Z,65.31
2018-12-13T11:50:46.985Z,65.93
2018-12-13T11:51:46.974Z,66.31
2018-12-13T11:52:47.160Z,66.53
2018-12-13T11:53:47.010Z,63.79
2018-12-13T11:54:46.961Z,63.51
2018-12-13T11:55:46.933Z,63.23
2018-12-13T11:56:46.923Z,63.23
2018-12-13T11:57:46.909Z,63.46
2018-12-13T11:58:46.894Z,64.51
2018-12-13T11:59:46.919Z,63.46
2018-12-13T12:00:46.908Z,63.67
2018-12-13T12:01:46.893Z,64.72
2018-12-13T12:02:46.863Z,64.61
2018-12-13T12:03:46.847Z,64.37
2018-12-13T12:04:47.929Z,65.41
2018-12-13T12:05:46.839Z,63.88
2018-12-13T12:06:46.806Z,64.09
2018-12-13T12:07:46.795Z,62.53
2018-12-13T12:08:46.788Z,63.57
2018-12-13T12:09:46.803Z,64.51
2018-12-13T12:10:46.766Z,63.75
2018-12-13T12:11:46.751Z,63.12
2018-12-13T12:12:46.747Z,63.98
2018-12-13T12:13:46.729Z,64.06
2018-12-13T12:14:46.744Z,62.81
2018-12-13T12:15:46.733Z,61.57
2018-12-13T12:16:46.711Z,62.92
2018-12-13T12:17:46.690Z,62.81
2018-12-13T12:18:46.677Z,62.71
2018-12-13T12:19:46.682Z,62.71
2018-12-13T12:20:46.724Z,63.64
2018-12-13T12:21:46.798Z,63.54
2018-12-13T12:22:46.636Z,62.68
2018-12-13T12:23:46.625Z,62.81
2018-12-13T12:24:46.643Z,63.09
2018-12-13T12:25:46.626Z,62.40
2018-12-13T12:26:46.663Z,61.25
2018-12-13T12:27:46.617Z,62.81
2018-12-13T12:28:46.620Z,62.92
2018-12-13T12:29:46.563Z,64.06
2018-12-13T12:30:46.569Z,61.98
2018-12-13T12:31:46.536Z,62.50
2018-12-13T12:32:46.525Z,63.12
2018-12-13T12:33:46.597Z,63.43
2018-12-13T12:34:46.534Z,63.23
2018-12-13T12:35:46.518Z,63.41
2018-12-13T12:36:46.514Z,62.99
2018-12-13T12:37:46.469Z,63.41
2018-12-13T12:38:46.457Z,63.51
2018-12-13T12:39:46.450Z,64.83
2018-12-13T12:40:46.475Z,63.41
2018-12-13T12:41:46.424Z,63.75
2018-12-13T12:42:46.431Z,64.48
2018-12-13T12:43:46.400Z,66.50
2018-12-13T12:44:46.391Z,65.45
2018-12-13T12:45:46.422Z,63.48
2018-12-13T12:46:46.374Z,62.88
2018-12-13T12:47:46.387Z,63.23
2018-12-13T12:48:46.348Z,64.17
2018-12-13T12:49:46.404Z,64.69
2018-12-13T12:50:46.348Z,65.10
2018-12-13T12:51:46.648Z,63.75
2018-12-13T12:52:46.317Z,63.96
2018-12-13T12:53:46.315Z,65.13
2018-12-13T12:54:46.280Z,65.10
2018-12-13T12:55:46.294Z,64.51
2018-12-13T12:56:46.278Z,64.79
2018-12-13T12:57:46.246Z,63.85
2018-12-13T12:58:46.280Z,65.17
2018-12-13T12:59:46.230Z,63.96
2018-12-13T13:00:46.299Z,61.88
2018-12-13T13:01:46.399Z,62.92
2018-12-13T13:02:47.579Z,64.17
2018-12-13T13:03:46.285Z,63.33
2018-12-13T13:04:46.180Z,63.33
2018-12-13T13:05:46.255Z,63.31
2018-12-13T13:06:46.175Z,61.98
2018-12-13T13:07:46.143Z,62.81
2018-12-13T13:08:46.164Z,63.23
2018-12-13T13:09:46.127Z,63.64
2018-12-13T13:10:46.105Z,63.33
2018-12-13T13:11:46.166Z,62.92
2018-12-13T13:12:46.095Z,62.71
2018-12-13T13:13:46.074Z,63.23
2018-12-13T13:14:46.075Z,63.33
2018-12-13T13:15:46.054Z,63.75
2018-12-13T13:16:46.072Z,64.06
2018-12-13T13:17:46.073Z,65.20
2018-12-13T13:18:46.014Z,63.23
2018-12-13T13:19:46.013Z,64.45
2018-12-13T13:20:46.000Z,63.41
2018-12-13T13:21:46.016Z,62.78
2018-12-13T13:22:45.979Z,61.64
2018-12-13T13:23:46.007Z,62.05
2018-12-13T13:24:45.961Z,61.77
2018-12-13T13:25:45.969Z,61.88
2018-12-13T13:26:45.961Z,62.60
2018-12-13T13:27:45.926Z,63.02
2018-12-13T13:28:45.914Z,62.81
2018-12-13T13:29:45.896Z,62.81
2018-12-13T13:30:45.908Z,62.74
2018-12-13T13:31:45.928Z,62.50
2018-12-13T13:32:45.865Z,63.85
2018-12-13T13:33:45.855Z,64.24
2018-12-13T13:34:45.848Z,63.23
2018-12-13T13:35:45.837Z,63.02
2018-12-13T13:36:45.867Z,62.71
2018-12-13T13:37:45.841Z,63.51
2018-12-13T13:38:45.805Z,61.98
2018-12-13T13:39:45.787Z,62.81
2018-12-13T13:40:45.778Z,63.54
2018-12-13T13:41:45.811Z,63.43
2018-12-13T13:42:46.499Z,63.93
2018-12-13T13:43:45.750Z,63.90
2018-12-13T13:44:45.734Z,62.24
2018-12-13T13:45:45.732Z,62.02
2018-12-13T13:46:45.773Z,61.92
2018-12-13T13:47:45.701Z,64.73
2018-12-13T13:48:45.693Z,61.22
2018-12-13T13:49:45.685Z,61.64
2018-12-13T13:50:45.716Z,61.98
2018-12-13T13:51:45.682Z,61.98
2018-12-13T13:52:45.644Z,62.63
2018-12-13T13:53:45.638Z,62.95
2018-12-13T13:54:45.631Z,62.92
2018-12-13T13:55:45.621Z,62.95
2018-12-13T13:56:45.656Z,62.63
2018-12-13T13:57:45.629Z,63.67
2018-12-13T13:58:45.581Z,62.92
2018-12-13T13:59:45.575Z,63.31
2018-12-13T14:00:45.563Z,62.45
2018-12-13T14:01:45.580Z,62.62
2018-12-13T14:02:45.539Z,63.73
2018-12-13T14:03:45.588Z,60.34
2018-12-13T14:04:45.522Z,60.81
2018-12-13T14:05:45.509Z,62.78
2018-12-13T14:06:45.521Z,61.25
2018-12-13T14:07:45.491Z,61.36
2018-12-13T14:08:45.481Z,61.57
2018-12-13T14:09:45.464Z,65.17
2018-12-13T14:10:45.451Z,62.45
2018-12-13T14:11:45.519Z,60.05
2018-12-13T14:12:45.439Z,60.13
2018-12-13T14:13:45.423Z,61.61
2018-12-13T14:14:45.405Z,60.26
2018-12-13T14:15:45.397Z,60.05
2018-12-13T14:16:45.423Z,63.09
2018-12-13T14:17:45.376Z,61.74
2018-12-13T14:18:45.367Z,61.57
2018-12-13T14:19:45.348Z,61.77
2018-12-13T14:20:45.393Z,61.46
2018-12-13T14:21:45.358Z,64.06
2018-12-13T14:22:45.324Z,61.88
2018-12-13T14:23:45.330Z,65.20
2018-12-13T14:24:45.294Z,62.08
2018-12-13T14:25:45.311Z,62.08
2018-12-13T14:26:45.318Z,64.27
2018-12-13T14:27:45.295Z,62.81
2018-12-13T14:28:45.251Z,61.77
2018-12-13T14:29:45.242Z,61.80
2018-12-13T14:30:45.238Z,62.87
2018-12-13T14:31:45.220Z,62.74
2018-12-13T14:32:45.236Z,62.87
2018-12-13T14:33:45.228Z,66.24
2018-12-13T14:34:45.187Z,62.29
2018-12-13T14:35:45.179Z,61.36
2018-12-13T14:36:45.165Z,61.07
2018-12-13T14:37:45.175Z,62.01
2018-12-13T14:38:45.142Z,62.87
2018-12-13T14:39:45.131Z,62.87
2018-12-13T14:40:45.157Z,62.87
2018-12-13T14:41:45.107Z,62.76
2018-12-13T14:42:45.120Z,62.90
2018-12-13T14:43:45.121Z,63.18
2018-12-13T14:44:45.073Z,62.95
2018-12-13T14:45:45.074Z,62.53
2018-12-13T14:46:45.071Z,62.50
2018-12-13T14:47:45.067Z,63.33
2018-12-13T14:48:45.041Z,62.88
2018-12-13T14:49:45.019Z,61.95
2018-12-13T14:50:45.008Z,62.92
2018-12-13T14:51:45.008Z,63.04
2018-12-13T14:52:45.007Z,60.29
2018-12-13T14:53:44.982Z,61.46
2018-12-13T14:54:44.976Z,62.37
2018-12-13T14:55:44.956Z,61.77
2018-12-13T14:56:44.945Z,62.01
2018-12-13T14:57:44.955Z,65.34
2018-12-13T14:58:44.917Z,61.88
2018-12-13T14:59:47.220Z,65.83
2018-12-13T15:00:44.904Z,62.92
2018-12-13T15:01:44.891Z,63.51
2018-12-13T15:02:44.942Z,62.78
2018-12-13T15:03:44.863Z,64.34
2018-12-13T15:04:44.851Z,62.88
2018-12-13T15:05:44.849Z,63.59
2018-12-13T15:06:44.828Z,62.76
2018-12-13T15:07:44.840Z,65.94
2018-12-13T15:08:44.822Z,64.67
2018-12-13T15:09:50.660Z,65.58
2018-12-13T15:10:45.788Z,64.61
2018-12-13T15:11:44.786Z,64.54
2018-12-13T15:12:44.790Z,65.99
2018-12-13T15:13:44.765Z,64.64
2018-12-13T15:14:44.753Z,65.19
2018-12-13T15:15:44.732Z,64.59
2018-12-13T15:16:44.745Z,62.99
2018-12-13T15:17:44.736Z,63.33
2018-12-13T15:18:44.700Z,65.23
2018-12-13T15:19:44.688Z,66.09
2018-12-13T15:20:44.694Z,66.72
2018-12-13T15:21:44.665Z,65.19
2018-12-13T15:22:44.677Z,68.52
2018-12-13T15:23:44.645Z,66.47
2018-12-13T15:24:44.637Z,69.07
2018-12-13T15:25:44.621Z,67.61
2018-12-13T15:26:44.638Z,69.46
2018-12-13T15:27:44.627Z,67.30
2018-12-13T15:28:44.587Z,66.19
2018-12-13T15:29:45.283Z,64.86
2018-12-13T15:30:44.564Z,64.55
2018-12-13T15:31:44.555Z,66.19
2018-12-13T15:32:44.587Z,65.98
2018-12-13T15:33:44.532Z,66.32
2018-12-13T15:34:44.522Z,66.04
2018-12-13T15:35:44.534Z,66.42
2018-12-13T15:36:44.497Z,66.63
2018-12-13T15:37:44.513Z,66.88
2018-12-13T15:38:44.475Z,66.25
2018-12-13T15:39:44.465Z,66.56
2018-12-13T15:40:44.466Z,66.88
2018-12-13T15:41:44.573Z,66.77
2018-12-13T15:42:44.459Z,66.66
2018-12-13T15:43:44.426Z,68.72
2018-12-13T15:44:44.414Z,66.50
2018-12-13T15:45:44.397Z,64.49
2018-12-13T15:46:44.391Z,63.97
2018-12-13T15:47:44.418Z,64.97
2018-12-13T15:48:44.371Z,66.50
2018-12-13T15:49:44.355Z,67.79
2018-12-13T15:50:44.348Z,63.53
2018-12-13T15:51:44.332Z,66.51
2018-12-13T15:52:44.340Z,63.32
2018-12-13T15:53:44.375Z,63.76
2018-12-13T15:54:44.304Z,66.26
2018-12-13T15:55:44.292Z,70.09
2018-12-13T15:56:44.280Z,67.49
2018-12-13T15:57:44.286Z,67.91
2018-12-13T15:58:44.253Z,64.32
2018-12-13T15:59:44.259Z,66.51
2018-12-13T16:00:44.234Z,65.19
2018-12-13T16:01:44.221Z,65.81
2018-12-13T16:02:44.236Z,67.86
2018-12-13T16:03:44.196Z,63.53
2018-12-13T16:04:44.189Z,63.97
2018-12-13T16:05:44.190Z,66.39
2018-12-13T16:06:44.190Z,66.74
2018-12-13T16:07:44.180Z,67.61
2018-12-13T16:08:44.147Z,68.87
2018-12-13T16:09:44.134Z,65.64
2018-12-13T16:10:44.125Z,66.29
2018-12-13T16:11:44.111Z,64.73
2018-12-13T16:12:44.153Z,65.17
2018-12-13T16:13:44.092Z,65.59
2018-12-13T16:14:44.080Z,66.22
2018-12-13T16:15:44.071Z,65.70
2018-12-13T16:16:44.056Z,64.65
2018-12-13T16:17:44.070Z,65.25
2018-12-13T16:18:44.076Z,64.65
2018-12-13T16:19:44.022Z,64.86
2018-12-13T16:20:44.012Z,65.38
2018-12-13T16:21:43.999Z,64.86
2018-12-13T16:22:43.990Z,64.55
2018-12-13T16:23:44.815Z,65.04
2018-12-13T16:24:43.984Z,64.62
2018-12-13T16:25:43.957Z,64.00
2018-12-13T16:26:43.944Z,65.04
2018-12-13T16:27:43.940Z,63.89
2018-12-13T16:28:43.945Z,63.79
2018-12-13T16:29:43.911Z,64.52
2018-12-13T16:30:43.915Z,65.56
2018-12-13T16:31:43.892Z,65.35
2018-12-13T16:32:43.880Z,64.90
2018-12-13T16:33:43.889Z,64.94
2018-12-13T16:34:43.858Z,64.31
2018-12-13T16:35:43.847Z,64.11
2018-12-13T16:36:43.852Z,64.42
2018-12-13T16:37:43.820Z,65.33
2018-12-13T16:38:43.833Z,64.18
2018-12-13T16:39:43.804Z,66.86
2018-12-13T16:40:43.792Z,63.36
2018-12-13T16:41:43.787Z,66.24
2018-12-13T16:42:43.772Z,66.14
2018-12-13T16:43:43.790Z,60.19
2018-12-13T16:44:43.742Z,61.88
2018-12-13T16:45:43.740Z,61.52
2018-12-13T16:46:43.720Z,62.90
2018-12-13T16:47:43.715Z,63.45
2018-12-13T16:48:45.018Z,64.53
2018-12-13T16:49:43.700Z,62.90
2018-12-13T16:50:43.679Z,64.53
2018-12-13T16:51:43.670Z,67.15
2018-12-13T16:52:43.659Z,65.97
2018-12-13T16:53:43.668Z,63.17
2018-12-13T16:54:43.638Z,63.28
2018-12-13T16:55:43.640Z,61.22
2018-12-13T16:56:43.611Z,66.63
2018-12-13T16:57:43.607Z,65.63
2018-12-13T16:58:43.613Z,62.02
2018-12-13T16:59:43.578Z,64.39
2018-12-13T17:00:43.571Z,62.07
2018-12-13T17:01:43.572Z,61.61
2018-12-13T17:02:43.570Z,62.34
2018-12-13T17:03:43.540Z,63.31
2018-12-13T17:04:43.550Z,60.52
2018-12-13T17:05:43.513Z,64.45
2018-12-13T17:06:43.499Z,62.22
2018-12-13T17:07:43.506Z,62.98
2018-12-13T17:08:43.482Z,65.30
2018-12-13T17:09:43.489Z,63.73
2018-12-13T17:10:43.463Z,64.07
2018-12-13T17:11:43.445Z,64.67
2018-12-13T17:12:43.436Z,68.15
2018-12-13T17:13:43.439Z,62.98
2018-12-13T17:14:43.437Z,62.90
2018-12-13T17:15:43.402Z,63.55
2018-12-13T17:16:43.392Z,64.62
2018-12-13T17:17:43.379Z,66.82
2018-12-13T17:18:43.372Z,64.70
2018-12-13T17:19:43.409Z,64.39
2018-12-13T17:20:43.344Z,65.46
2018-12-13T17:21:43.337Z,65.92
2018-12-13T17:22:43.325Z,66.65
2018-12-13T17:23:43.312Z,66.59
2018-12-13T17:24:43.322Z,68.01
2018-12-13T17:25:43.314Z,64.19
2018-12-13T17:26:43.282Z,63.81
2018-12-13T17:27:43.267Z,66.44
2018-12-13T17:28:43.254Z,65.19
2018-12-13T17:29:43.273Z,67.32
2018-12-13T17:30:43.240Z,64.58
2018-12-13T17:31:43.241Z,64.06
2018-12-13T17:32:43.237Z,65.96
2018-12-13T17:33:43.201Z,64.58
2018-12-13T17:34:43.310Z,66.24
2018-12-13T17:35:43.180Z,64.55
2018-12-13T17:36:43.171Z,64.58
2018-12-13T17:37:43.205Z,62.92
2018-12-13T17:38:43.147Z,62.95
2018-12-13T17:39:43.137Z,65.83
2018-12-13T17:40:43.145Z,63.12
2018-12-13T17:41:43.116Z,65.41
2018-12-13T17:42:43.102Z,66.45
2018-12-13T17:43:43.108Z,63.75
2018-12-13T17:44:43.098Z,67.39
2018-12-13T17:45:43.089Z,67.29
2018-12-13T17:46:43.058Z,67.60
2018-12-13T17:47:43.045Z,66.53
2018-12-13T17:48:43.034Z,62.65
2018-12-13T17:49:43.023Z,65.28
2018-12-13T17:50:43.050Z,68.08
2018-12-13T17:51:43.001Z,63.20
2018-12-13T17:52:43.016Z,66.15
2018-12-13T17:53:42.981Z,64.07
2018-12-13T17:54:42.988Z,63.87
2018-12-13T17:55:42.978Z,62.45
2018-12-13T17:56:42.970Z,63.64
2018-12-13T17:57:42.940Z,65.06
2018-12-13T17:58:42.927Z,66.33
2018-12-13T17:59:42.913Z,69.12
2018-12-13T18:00:42.924Z,65.26
2018-12-13T18:01:42.893Z,66.65
2018-12-13T18:02:42.891Z,67.58
2018-12-13T18:03:42.869Z,69.04
2018-12-13T18:04:42.860Z,67.69
2018-12-13T18:05:42.886Z,68.15
2018-12-13T18:06:42.841Z,65.20
2018-12-13T18:07:42.838Z,64.12
2018-12-13T18:08:42.822Z,68.84
2018-12-13T18:09:42.813Z,67.48
2018-12-13T18:10:42.819Z,65.33
2018-12-13T18:11:42.805Z,67.78
2018-12-13T18:12:42.773Z,68.17
2018-12-13T18:13:42.760Z,68.76
2018-12-13T18:14:42.747Z,68.87
2018-12-13T18:15:42.739Z,68.35
2018-12-13T18:16:43.549Z,69.07
2018-12-13T18:17:42.715Z,66.05
2018-12-13T18:18:42.702Z,66.26
2018-12-13T18:19:42.699Z,68.55
2018-12-13T18:20:42.685Z,70.12
2018-12-13T18:21:42.694Z,66.16
2018-12-13T18:22:42.690Z,65.70
2018-12-13T18:23:42.651Z,66.74
2018-12-13T18:24:42.635Z,66.46
2018-12-13T18:25:42.632Z,71.64
2018-12-13T18:26:42.640Z,68.84
2018-12-13T18:27:42.610Z,66.83
2018-12-13T18:28:42.604Z,66.24
2018-12-13T18:29:42.580Z,65.55
2018-12-13T18:30:42.575Z,63.60
2018-12-13T18:31:42.582Z,66.16
2018-12-13T18:32:42.571Z,65.98
2018-12-13T18:33:42.590Z,65.67
2018-12-13T18:34:42.544Z,66.08
2018-12-13T18:35:42.512Z,66.60
2018-12-13T18:36:42.503Z,65.04
2018-12-13T18:37:42.514Z,67.41
2018-12-13T18:38:42.486Z,67.29
2018-12-13T18:39:42.471Z,65.25
2018-12-13T18:40:42.480Z,63.31
2018-12-13T18:41:42.453Z,63.43
2018-12-13T18:42:42.458Z,62.66
2018-12-13T18:43:42.425Z,64.53
2018-12-13T18:44:42.413Z,67.76
2018-12-13T18:45:42.405Z,66.35
2018-12-13T18:46:42.409Z,66.00
2018-12-13T18:47:42.409Z,64.65
2018-12-13T18:48:42.371Z,65.25
2018-12-13T18:49:42.364Z,62.96
2018-12-13T18:50:42.347Z,60.42
2018-12-13T18:51:42.338Z,62.14
2018-12-13T18:52:42.368Z,67.70
2018-12-13T18:53:42.319Z,63.43
2018-12-13T18:54:42.311Z,60.89
2018-12-13T18:55:42.294Z,63.10
2018-12-13T18:56:42.279Z,65.92
2018-12-13T18:57:42.299Z,64.87
2018-12-13T18:58:42.304Z,65.47
2018-12-13T18:59:42.256Z,63.82
2018-12-13T19:00:42.237Z,63.07
2018-12-13T19:01:42.226Z,60.19
2018-12-13T19:02:42.217Z,62.08
2018-12-13T19:03:42.232Z,62.76
2018-12-13T19:04:42.210Z,61.96
2018-12-13T19:05:42.180Z,66.33
2018-12-13T19:06:42.174Z,66.51
2018-12-13T19:07:42.158Z,62.74
2018-12-13T19:08:43.760Z,63.32
2018-12-13T19:09:42.139Z,63.24
2018-12-13T19:10:42.129Z,63.63
2018-12-13T19:11:42.130Z,64.15
2018-12-13T19:12:42.104Z,65.06
2018-12-13T19:13:42.114Z,66.66
2018-12-13T19:14:42.086Z,64.37
2018-12-13T19:15:42.068Z,65.83
2018-12-13T19:16:42.061Z,64.86
2018-12-13T19:17:42.065Z,61.57
2018-12-13T19:18:42.060Z,64.14
2018-12-13T19:19:42.023Z,61.88
2018-12-13T19:20:42.018Z,64.48
2018-12-13T19:21:42.006Z,66.21
2018-12-13T19:22:41.992Z,67.36
2018-12-13T19:23:42.024Z,66.18
2018-12-13T19:24:41.993Z,66.42
2018-12-13T19:25:41.967Z,64.24
2018-12-13T19:26:41.945Z,65.38
2018-12-13T19:27:41.936Z,65.87
2018-12-13T19:28:41.928Z,65.25
2018-12-13T19:29:41.953Z,63.48
2018-12-13T19:30:41.906Z,62.86
2018-12-13T19:31:41.895Z,65.35
2018-12-13T19:32:41.884Z,62.41
2018-12-13T19:33:41.874Z,60.52
2018-12-13T19:34:41.893Z,60.11
2018-12-13T19:35:41.877Z,62.98
2018-12-13T19:36:41.839Z,65.01
2018-12-13T19:37:41.826Z,65.35
2018-12-13T19:38:41.817Z,68.03
2018-12-13T19:39:41.827Z,65.01
2018-12-13T19:40:48.182Z,65.35
2018-12-13T19:41:42.803Z,65.25
2018-12-13T19:42:41.775Z,65.22
2018-12-13T19:43:41.762Z,64.59
2018-12-13T19:44:41.773Z,66.89
2018-12-13T19:45:41.748Z,66.13
2018-12-13T19:46:41.728Z,67.86
2018-12-13T19:47:41.744Z,65.44
2018-12-13T19:48:41.709Z,67.95
2018-12-13T19:49:41.719Z,62.73
2018-12-13T19:50:41.684Z,65.01
2018-12-13T19:51:41.675Z,65.81
2018-12-13T19:52:41.658Z,65.16
2018-12-13T19:53:41.689Z,61.55
2018-12-13T19:54:41.663Z,63.01
2018-12-13T19:55:41.626Z,62.70
2018-12-13T19:56:41.617Z,60.39
2018-12-13T19:57:41.609Z,62.01
2018-12-13T19:58:41.597Z,63.10
2018-12-13T19:59:41.632Z,64.90
2018-12-13T20:00:41.573Z,65.46
2018-12-13T20:01:41.561Z,66.01
2018-12-13T20:02:41.551Z,66.77
2018-12-13T20:03:41.542Z,67.60
2018-12-13T20:04:41.622Z,70.73
2018-12-13T20:05:41.549Z,66.71
2018-12-13T20:06:41.509Z,66.63
2018-12-13T20:07:41.498Z,66.42
2018-12-13T20:08:41.506Z,68.20
2018-12-13T20:09:41.481Z,71.58
2018-12-13T20:10:41.488Z,65.93
2018-12-13T20:11:41.476Z,66.54
2018-12-13T20:12:41.440Z,65.08
2018-12-13T20:13:41.430Z,62.83
2018-12-13T20:14:41.418Z,60.71
2018-12-13T20:15:41.427Z,61.98
2018-12-13T20:16:41.393Z,64.15
2018-12-13T20:17:41.397Z,65.46
2018-12-13T20:18:41.375Z,68.55
2018-12-13T20:19:41.364Z,68.35
2018-12-13T20:20:41.376Z,66.74
2018-12-13T20:21:41.348Z,63.09
2018-12-13T20:22:41.329Z,62.71
2018-12-13T20:23:41.327Z,64.82
2018-12-13T20:24:41.333Z,64.75
2018-12-13T20:25:41.325Z,65.46
2018-12-13T20:26:41.287Z,67.54
2018-12-13T20:27:41.277Z,69.28
2018-12-13T20:28:41.266Z,69.50
2018-12-13T20:29:41.254Z,66.13
2018-12-13T20:30:41.286Z,68.52
2018-12-13T20:31:41.237Z,68.07
2018-12-13T20:32:41.225Z,66.72
2018-12-13T20:33:41.212Z,66.13
2018-12-13T20:34:41.199Z,66.57
2018-12-13T20:35:41.217Z,70.43
2018-12-13T20:36:41.186Z,66.77
2018-12-13T20:37:41.168Z,63.67
2018-12-13T20:38:41.153Z,66.38
2018-12-13T20:39:41.143Z,65.37
2018-12-13T20:40:41.160Z,64.25
2018-12-13T20:41:41.123Z,64.62
2018-12-13T20:42:41.128Z,65.70
2018-12-13T20:43:41.106Z,66.66
2018-12-13T20:44:41.088Z,66.56
2018-12-13T20:45:41.099Z,66.14
2018-12-13T20:46:41.065Z,66.66
2018-12-13T20:47:41.055Z,66.88
2018-12-13T20:48:41.052Z,69.25
2018-12-13T20:49:41.031Z,65.78
2018-12-13T20:50:41.050Z,62.90
2018-12-13T20:51:41.009Z,65.96
2018-12-13T20:52:41.000Z,63.60
2018-12-13T20:53:40.990Z,65.58
2018-12-13T20:54:41.010Z,65.75
2018-12-13T20:55:40.994Z,65.69
2018-12-13T20:56:40.955Z,62.96
2018-12-13T20:57:40.948Z,62.08
2018-12-13T20:58:40.934Z,65.31
2018-12-13T20:59:40.923Z,65.93
2018-12-13T21:00:40.944Z,62.92
2018-12-13T21:01:40.900Z,61.69
2018-12-13T21:02:40.889Z,63.49
2018-12-13T21:03:40.878Z,62.93
2018-12-13T21:04:40.864Z,63.97
2018-12-13T21:05:40.879Z,67.90
2018-12-13T21:06:40.881Z,66.45
2018-12-13T21:07:40.835Z,65.94
2018-12-13T21:08:40.833Z,59.53
2018-12-13T21:09:40.814Z,63.93
2018-12-13T21:10:40.826Z,64.28
2018-12-13T21:11:40.790Z,62.00
2018-12-13T21:12:40.799Z,59.84
2018-12-13T21:13:40.769Z,62.45
2018-12-13T21:14:40.760Z,62.96
2018-12-13T21:15:40.771Z,60.35
2018-12-13T21:16:40.741Z,65.20
2018-12-13T21:17:40.727Z,60.55
2018-12-13T21:18:40.726Z,60.24
2018-12-13T21:19:40.732Z,61.65
2018-12-13T21:20:40.720Z,65.75
2018-12-13T21:21:40.678Z,64.37
2018-12-13T21:22:40.669Z,63.36
2018-12-13T21:23:40.660Z,62.55
2018-12-13T21:24:40.646Z,66.27
2018-12-13T21:25:40.677Z,61.04
2018-12-13T21:26:40.625Z,62.65
2018-12-13T21:27:40.616Z,60.21
2018-12-13T21:28:40.603Z,62.24
2018-12-13T21:29:40.593Z,64.36
2018-12-13T21:30:40.606Z,62.55
2018-12-13T21:31:40.589Z,62.90
2018-12-13T21:32:40.565Z,65.81
2018-12-13T21:33:40.546Z,62.79
2018-12-13T21:34:40.567Z,65.99
2018-12-13T21:35:40.526Z,63.10
2018-12-13T21:36:40.539Z,62.85
2018-12-13T21:37:40.522Z,64.00
2018-12-13T21:38:40.495Z,63.58
2018-12-13T21:39:40.482Z,64.00
2018-12-13T21:40:40.474Z,64.28
2018-12-13T21:41:40.486Z,63.10
2018-12-13T21:42:40.448Z,62.90
2018-12-13T21:43:40.448Z,62.96
2018-12-13T21:44:40.424Z,66.16
2018-12-13T21:45:40.418Z,63.60
2018-12-13T21:46:40.435Z,65.72
2018-12-13T21:47:40.404Z,62.01
2018-12-13T21:48:40.381Z,62.14
2018-12-13T21:49:40.395Z,62.93
2018-12-13T21:50:40.362Z,64.42
2018-12-13T21:51:40.373Z,63.68
2018-12-13T21:52:40.338Z,65.38
2018-12-13T21:53:40.328Z,66.33
2018-12-13T21:54:40.316Z,62.69
2018-12-13T21:55:40.318Z,65.01
2018-12-13T21:56:40.319Z,67.11
2018-12-13T21:57:40.285Z,64.76
2018-12-13T21:58:40.274Z,63.69